sensor_id;sensor_type;location;lat;lon;timestamp;pressure;altitude;pressure_sealevel;temperature;humidity
81033;BME280;70514;52.478;6.102;2023-08-17T00:02:04;102286.19;;;20.03;66.50
81033;BME280;70514;52.478;6.102;2023-08-17T00:04:33;102280.88;;;20.15;67.07
81033;BME280;70514;52.478;6.102;2023-08-17T00:07:02;102277.41;;;21.02;65.48
81033;BME280;70514;52.478;6.102;2023-08-17T00:09:32;102265.94;;;20.28;65.35
81033;BME280;70514;52.478;6.102;2023-08-17T00:12:01;102278.84;;;20.51;67.47
81033;BME280;70514;52.478;6.102;2023-08-17T00:14:32;102273.03;;;20.12;66.70
81033;BME280;70514;52.478;6.102;2023-08-17T00:17:01;102276.28;;;20.46;65.28
81033;BME280;70514;52.478;6.102;2023-08-17T00:19:31;102276.84;;;19.69;67.23
81033;BME280;70514;52.478;6.102;2023-08-17T00:22:00;102276.16;;;20.57;66.40
81033;BME280;70514;52.478;6.102;2023-08-17T00:24:30;102280.50;;;20.58;65.67
81033;BME280;70514;52.478;6.102;2023-08-17T00:26:59;102278.28;;;21.01;63.55
81033;BME280;70514;52.478;6.102;2023-08-17T00:29:28;102274.91;;;20.93;64.71
81033;BME280;70514;52.478;6.102;2023-08-17T00:31:57;102281.47;;;20.48;66.28
81033;BME280;70514;52.478;6.102;2023-08-17T00:34:27;102274.38;;;20.57;65.89
81033;BME280;70514;52.478;6.102;2023-08-17T00:36:56;102276.13;;;20.61;64.91
81033;BME280;70514;52.478;6.102;2023-08-17T00:39:25;102260.00;;;20.98;63.14
81033;BME280;70514;52.478;6.102;2023-08-17T00:41:54;102260.88;;;20.98;63.80
81033;BME280;70514;52.478;6.102;2023-08-17T00:44:23;102255.84;;;20.78;63.86
81033;BME280;70514;52.478;6.102;2023-08-17T00:46:52;102252.63;;;20.54;65.83
81033;BME280;70514;52.478;6.102;2023-08-17T00:49:22;102251.75;;;20.53;65.36
81033;BME280;70514;52.478;6.102;2023-08-17T00:51:51;102232.09;;;20.95;65.01
81033;BME280;70514;52.478;6.102;2023-08-17T00:54:24;102249.78;;;20.73;64.15
81033;BME280;70514;52.478;6.102;2023-08-17T00:56:54;102242.16;;;20.55;66.00
81033;BME280;70514;52.478;6.102;2023-08-17T00:59:24;102246.13;;;19.98;67.22
81033;BME280;70514;52.478;6.102;2023-08-17T01:01:53;102242.53;;;20.14;67.10
81033;BME280;70514;52.478;6.102;2023-08-17T01:04:22;102234.34;;;20.49;66.97
81033;BME280;70514;52.478;6.102;2023-08-17T01:06:51;102229.19;;;20.43;65.02
81033;BME280;70514;52.478;6.102;2023-08-17T01:09:20;102236.56;;;19.97;67.27
81033;BME280;70514;52.478;6.102;2023-08-17T01:11:57;102234.75;;;20.02;66.94
81033;BME280;70514;52.478;6.102;2023-08-17T01:17:48;102233.03;;;20.03;65.95
81033;BME280;70514;52.478;6.102;2023-08-17T01:20:23;102227.53;;;20.33;66.47
81033;BME280;70514;52.478;6.102;2023-08-17T01:22:55;102227.91;;;20.81;65.52
81033;BME280;70514;52.478;6.102;2023-08-17T01:25:28;102237.91;;;20.42;64.07
81033;BME280;70514;52.478;6.102;2023-08-17T01:27:57;102228.91;;;20.70;64.75
81033;BME280;70514;52.478;6.102;2023-08-17T01:30:28;102245.97;;;20.18;65.57
81033;BME280;70514;52.478;6.102;2023-08-17T01:33:08;102240.28;;;19.67;66.00
81033;BME280;70514;52.478;6.102;2023-08-17T01:35:39;102249.97;;;19.47;68.40
81033;BME280;70514;52.478;6.102;2023-08-17T01:38:17;102248.97;;;19.66;69.40
81033;BME280;70514;52.478;6.102;2023-08-17T01:40:47;102242.56;;;20.10;65.25
81033;BME280;70514;52.478;6.102;2023-08-17T01:43:16;102243.59;;;19.87;68.26
81033;BME280;70514;52.478;6.102;2023-08-17T01:45:46;102243.75;;;19.68;67.51
81033;BME280;70514;52.478;6.102;2023-08-17T01:48:15;102241.91;;;19.83;68.34
81033;BME280;70514;52.478;6.102;2023-08-17T01:50:44;102243.44;;;20.06;65.89
81033;BME280;70514;52.478;6.102;2023-08-17T01:53:13;102233.59;;;20.38;65.72
81033;BME280;70514;52.478;6.102;2023-08-17T01:55:42;102238.00;;;20.30;65.31
81033;BME280;70514;52.478;6.102;2023-08-17T01:58:11;102223.81;;;19.53;66.45
81033;BME280;70514;52.478;6.102;2023-08-17T02:00:41;102230.75;;;19.54;67.80
81033;BME280;70514;52.478;6.102;2023-08-17T02:03:10;102225.31;;;19.84;67.60
81033;BME280;70514;52.478;6.102;2023-08-17T02:05:44;102231.28;;;20.03;64.77
81033;BME280;70514;52.478;6.102;2023-08-17T02:08:13;102227.78;;;20.03;67.08
81033;BME280;70514;52.478;6.102;2023-08-17T02:10:42;102221.06;;;19.71;66.11
81033;BME280;70514;52.478;6.102;2023-08-17T02:13:12;102224.25;;;20.07;66.71
81033;BME280;70514;52.478;6.102;2023-08-17T02:15:47;102222.66;;;19.92;67.32
81033;BME280;70514;52.478;6.102;2023-08-17T02:18:16;102220.03;;;19.92;65.84
81033;BME280;70514;52.478;6.102;2023-08-17T02:20:45;102233.09;;;19.90;66.14
81033;BME280;70514;52.478;6.102;2023-08-17T02:23:14;102225.81;;;20.29;65.08
81033;BME280;70514;52.478;6.102;2023-08-17T02:25:43;102221.59;;;20.14;65.82
81033;BME280;70514;52.478;6.102;2023-08-17T02:28:13;102214.47;;;20.28;66.10
81033;BME280;70514;52.478;6.102;2023-08-17T02:30:43;102215.97;;;20.57;64.30
81033;BME280;70514;52.478;6.102;2023-08-17T02:33:12;102221.69;;;20.01;65.42
81033;BME280;70514;52.478;6.102;2023-08-17T02:35:41;102210.53;;;19.83;65.24
81033;BME280;70514;52.478;6.102;2023-08-17T02:38:11;102209.56;;;19.93;66.37
81033;BME280;70514;52.478;6.102;2023-08-17T02:40:39;102217.41;;;19.90;67.36
81033;BME280;70514;52.478;6.102;2023-08-17T02:43:09;102210.41;;;19.99;65.88
81033;BME280;70514;52.478;6.102;2023-08-17T02:45:38;102211.19;;;20.10;65.39
81033;BME280;70514;52.478;6.102;2023-08-17T02:48:07;102216.59;;;19.87;66.91
81033;BME280;70514;52.478;6.102;2023-08-17T02:50:37;102203.81;;;20.51;64.88
81033;BME280;70514;52.478;6.102;2023-08-17T02:53:06;102218.97;;;20.13;65.30
81033;BME280;70514;52.478;6.102;2023-08-17T02:55:35;102205.81;;;20.23;64.91
81033;BME280;70514;52.478;6.102;2023-08-17T02:58:04;102198.19;;;20.85;63.66
81033;BME280;70514;52.478;6.102;2023-08-17T03:00:33;102203.53;;;20.75;62.69
81033;BME280;70514;52.478;6.102;2023-08-17T03:03:03;102209.06;;;20.48;64.36
81033;BME280;70514;52.478;6.102;2023-08-17T03:05:33;102210.22;;;20.17;64.75
81033;BME280;70514;52.478;6.102;2023-08-17T03:08:02;102214.03;;;19.82;63.86
81033;BME280;70514;52.478;6.102;2023-08-17T03:10:32;102209.50;;;20.03;65.06
81033;BME280;70514;52.478;6.102;2023-08-17T03:13:01;102212.88;;;20.14;65.29
81033;BME280;70514;52.478;6.102;2023-08-17T03:15:30;102203.75;;;19.58;66.64
81033;BME280;70514;52.478;6.102;2023-08-17T03:17:59;102214.03;;;19.79;65.51
81033;BME280;70514;52.478;6.102;2023-08-17T03:20:28;102211.53;;;19.67;66.69
81033;BME280;70514;52.478;6.102;2023-08-17T03:22:58;102213.84;;;20.01;66.22
81033;BME280;70514;52.478;6.102;2023-08-17T03:25:26;102209.66;;;19.83;65.49
81033;BME280;70514;52.478;6.102;2023-08-17T03:27:56;102212.19;;;19.93;65.12
81033;BME280;70514;52.478;6.102;2023-08-17T03:30:25;102209.50;;;20.01;64.58
81033;BME280;70514;52.478;6.102;2023-08-17T03:32:54;102204.22;;;20.06;65.13
81033;BME280;70514;52.478;6.102;2023-08-17T03:35:23;102206.25;;;19.70;66.17
81033;BME280;70514;52.478;6.102;2023-08-17T03:37:52;102202.53;;;20.00;65.17
81033;BME280;70514;52.478;6.102;2023-08-17T03:40:21;102203.28;;;20.13;64.36
81033;BME280;70514;52.478;6.102;2023-08-17T03:42:51;102199.84;;;20.08;65.18
81033;BME280;70514;52.478;6.102;2023-08-17T03:45:20;102199.66;;;20.26;65.11
81033;BME280;70514;52.478;6.102;2023-08-17T03:47:49;102197.19;;;20.11;64.84
81033;BME280;70514;52.478;6.102;2023-08-17T03:50:18;102193.31;;;20.53;63.74
81033;BME280;70514;52.478;6.102;2023-08-17T03:52:47;102199.91;;;20.03;64.48
81033;BME280;70514;52.478;6.102;2023-08-17T03:55:16;102206.19;;;19.79;65.91
81033;BME280;70514;52.478;6.102;2023-08-17T03:57:45;102191.13;;;20.07;63.36
81033;BME280;70514;52.478;6.102;2023-08-17T04:00:14;102197.34;;;19.97;65.56
81033;BME280;70514;52.478;6.102;2023-08-17T04:02:43;102205.06;;;20.09;64.67
81033;BME280;70514;52.478;6.102;2023-08-17T04:05:13;102198.75;;;20.33;62.31
81033;BME280;70514;52.478;6.102;2023-08-17T04:07:42;102194.44;;;20.26;63.79
81033;BME280;70514;52.478;6.102;2023-08-17T04:10:12;102190.81;;;20.42;63.88
81033;BME280;70514;52.478;6.102;2023-08-17T04:12:41;102193.38;;;20.47;62.90
81033;BME280;70514;52.478;6.102;2023-08-17T04:15:10;102195.00;;;20.58;62.61
81033;BME280;70514;52.478;6.102;2023-08-17T04:17:40;102196.97;;;20.38;63.22
81033;BME280;70514;52.478;6.102;2023-08-17T04:20:09;102195.63;;;19.93;65.12
81033;BME280;70514;52.478;6.102;2023-08-17T04:22:39;102191.91;;;20.20;64.00
81033;BME280;70514;52.478;6.102;2023-08-17T04:25:08;102187.84;;;19.85;64.24
81033;BME280;70514;52.478;6.102;2023-08-17T04:27:37;102193.25;;;20.60;63.42
81033;BME280;70514;52.478;6.102;2023-08-17T04:30:07;102182.78;;;20.60;62.24
81033;BME280;70514;52.478;6.102;2023-08-17T04:32:36;102187.41;;;20.35;64.21
81033;BME280;70514;52.478;6.102;2023-08-17T04:35:05;102179.94;;;19.90;65.30
81033;BME280;70514;52.478;6.102;2023-08-17T04:37:34;102192.09;;;19.99;64.87
81033;BME280;70514;52.478;6.102;2023-08-17T04:40:04;102176.31;;;20.09;63.46
81033;BME280;70514;52.478;6.102;2023-08-17T04:42:34;102189.72;;;19.70;65.33
81033;BME280;70514;52.478;6.102;2023-08-17T04:45:03;102194.72;;;19.99;65.20
81033;BME280;70514;52.478;6.102;2023-08-17T04:47:32;102192.94;;;20.02;65.06
81033;BME280;70514;52.478;6.102;2023-08-17T04:50:02;102191.94;;;20.15;64.04
81033;BME280;70514;52.478;6.102;2023-08-17T04:52:31;102188.75;;;19.80;65.06
81033;BME280;70514;52.478;6.102;2023-08-17T04:55:00;102187.53;;;20.19;64.29
81033;BME280;70514;52.478;6.102;2023-08-17T04:57:29;102178.72;;;20.30;63.01
81033;BME280;70514;52.478;6.102;2023-08-17T04:59:59;102177.38;;;19.87;65.09
81033;BME280;70514;52.478;6.102;2023-08-17T05:02:28;102185.91;;;20.09;63.99
81033;BME280;70514;52.478;6.102;2023-08-17T05:04:57;102184.31;;;19.92;65.16
81033;BME280;70514;52.478;6.102;2023-08-17T05:07:28;102178.53;;;19.52;65.91
81033;BME280;70514;52.478;6.102;2023-08-17T05:09:57;102177.13;;;20.13;64.27
81033;BME280;70514;52.478;6.102;2023-08-17T05:12:26;102179.72;;;20.16;63.65
81033;BME280;70514;52.478;6.102;2023-08-17T05:14:56;102178.47;;;20.53;63.00
81033;BME280;70514;52.478;6.102;2023-08-17T05:17:25;102183.34;;;20.03;64.02
81033;BME280;70514;52.478;6.102;2023-08-17T05:19:55;102181.53;;;20.09;63.51
81033;BME280;70514;52.478;6.102;2023-08-17T05:22:24;102179.94;;;19.90;63.91
81033;BME280;70514;52.478;6.102;2023-08-17T05:24:54;102192.28;;;19.77;65.15
81033;BME280;70514;52.478;6.102;2023-08-17T05:27:23;102187.78;;;19.91;64.63
81033;BME280;70514;52.478;6.102;2023-08-17T05:29:52;102184.16;;;20.06;63.93
81033;BME280;70514;52.478;6.102;2023-08-17T05:32:21;102180.53;;;20.24;63.36
81033;BME280;70514;52.478;6.102;2023-08-17T05:34:50;102179.25;;;19.73;64.95
81033;BME280;70514;52.478;6.102;2023-08-17T05:37:20;102182.56;;;19.93;64.54
81033;BME280;70514;52.478;6.102;2023-08-17T05:39:49;102186.38;;;19.51;66.45
81033;BME280;70514;52.478;6.102;2023-08-17T05:42:18;102190.44;;;19.87;65.48
81033;BME280;70514;52.478;6.102;2023-08-17T05:44:47;102184.47;;;19.71;65.64
81033;BME280;70514;52.478;6.102;2023-08-17T05:47:16;102185.09;;;20.01;64.36
81033;BME280;70514;52.478;6.102;2023-08-17T05:49:48;102173.59;;;20.20;63.33
81033;BME280;70514;52.478;6.102;2023-08-17T05:52:17;102186.84;;;20.00;64.63
81033;BME280;70514;52.478;6.102;2023-08-17T05:54:46;102185.09;;;20.02;64.37
81033;BME280;70514;52.478;6.102;2023-08-17T05:57:15;102184.13;;;20.92;61.80
81033;BME280;70514;52.478;6.102;2023-08-17T05:59:44;102171.09;;;20.87;61.04
81033;BME280;70514;52.478;6.102;2023-08-17T06:02:13;102184.88;;;21.00;61.19
81033;BME280;70514;52.478;6.102;2023-08-17T06:04:43;102183.34;;;20.84;61.66
81033;BME280;70514;52.478;6.102;2023-08-17T06:07:12;102185.94;;;20.87;61.10
81033;BME280;70514;52.478;6.102;2023-08-17T06:09:41;102193.72;;;20.93;60.73
81033;BME280;70514;52.478;6.102;2023-08-17T06:12:10;102186.22;;;20.62;61.75
81033;BME280;70514;52.478;6.102;2023-08-17T06:14:39;102188.63;;;20.79;61.25
81033;BME280;70514;52.478;6.102;2023-08-17T06:17:09;102186.00;;;20.82;61.07
81033;BME280;70514;52.478;6.102;2023-08-17T06:19:38;102181.50;;;20.92;61.14
81033;BME280;70514;52.478;6.102;2023-08-17T06:22:08;102194.59;;;20.92;61.16
81033;BME280;70514;52.478;6.102;2023-08-17T06:24:37;102182.97;;;21.15;60.40
81033;BME280;70514;52.478;6.102;2023-08-17T06:27:06;102191.69;;;21.17;60.35
81033;BME280;70514;52.478;6.102;2023-08-17T06:29:35;102185.91;;;20.90;60.86
81033;BME280;70514;52.478;6.102;2023-08-17T06:32:05;102192.97;;;19.96;64.24
81033;BME280;70514;52.478;6.102;2023-08-17T06:34:35;102192.31;;;20.63;62.14
81033;BME280;70514;52.478;6.102;2023-08-17T06:37:05;102191.25;;;20.82;61.38
81033;BME280;70514;52.478;6.102;2023-08-17T06:39:35;102188.63;;;20.79;61.39
81033;BME280;70514;52.478;6.102;2023-08-17T06:42:06;102182.81;;;20.56;62.19
81033;BME280;70514;52.478;6.102;2023-08-17T06:44:35;102192.06;;;20.86;61.78
81033;BME280;70514;52.478;6.102;2023-08-17T06:47:04;102197.81;;;21.12;60.74
81033;BME280;70514;52.478;6.102;2023-08-17T06:49:34;102201.03;;;20.65;60.91
81033;BME280;70514;52.478;6.102;2023-08-17T06:52:04;102205.28;;;20.73;61.32
81033;BME280;70514;52.478;6.102;2023-08-17T06:54:33;102200.41;;;20.45;62.55
81033;BME280;70514;52.478;6.102;2023-08-17T06:57:02;102199.03;;;20.87;60.80
81033;BME280;70514;52.478;6.102;2023-08-17T06:59:32;102210.44;;;21.48;59.07
81033;BME280;70514;52.478;6.102;2023-08-17T07:02:02;102205.28;;;21.41;59.38
81033;BME280;70514;52.478;6.102;2023-08-17T07:04:32;102208.69;;;20.82;61.08
81033;BME280;70514;52.478;6.102;2023-08-17T07:07:01;102209.25;;;21.08;60.75
81033;BME280;70514;52.478;6.102;2023-08-17T07:09:30;102198.66;;;21.17;60.22
81033;BME280;70514;52.478;6.102;2023-08-17T07:11:59;102213.41;;;21.24;60.16
81033;BME280;70514;52.478;6.102;2023-08-17T07:14:29;102208.19;;;21.24;59.95
81033;BME280;70514;52.478;6.102;2023-08-17T07:16:58;102204.19;;;21.55;58.96
81033;BME280;70514;52.478;6.102;2023-08-17T07:19:27;102205.44;;;21.87;58.05
81033;BME280;70514;52.478;6.102;2023-08-17T07:22:16;102202.66;;;21.42;59.09
81033;BME280;70514;52.478;6.102;2023-08-17T07:24:46;102210.59;;;21.36;59.50
81033;BME280;70514;52.478;6.102;2023-08-17T07:27:15;102211.69;;;21.22;60.07
81033;BME280;70514;52.478;6.102;2023-08-17T07:29:44;102215.28;;;21.73;58.36
81033;BME280;70514;52.478;6.102;2023-08-17T07:32:13;102211.53;;;21.90;57.31
81033;BME280;70514;52.478;6.102;2023-08-17T07:34:42;102219.16;;;22.06;57.06
81033;BME280;70514;52.478;6.102;2023-08-17T07:37:11;102217.91;;;21.74;57.57
81033;BME280;70514;52.478;6.102;2023-08-17T07:39:43;102220.44;;;21.79;57.80
81033;BME280;70514;52.478;6.102;2023-08-17T07:42:13;102213.31;;;21.87;57.48
81033;BME280;70514;52.478;6.102;2023-08-17T07:44:42;102221.31;;;21.19;59.67
81033;BME280;70514;52.478;6.102;2023-08-17T07:47:11;102225.63;;;21.82;58.25
81033;BME280;70514;52.478;6.102;2023-08-17T07:49:40;102218.94;;;22.18;56.72
81033;BME280;70514;52.478;6.102;2023-08-17T07:52:09;102225.41;;;21.97;57.14
81033;BME280;70514;52.478;6.102;2023-08-17T07:54:39;102228.81;;;22.03;57.07
81033;BME280;70514;52.478;6.102;2023-08-17T07:57:08;102227.81;;;22.11;57.08
81033;BME280;70514;52.478;6.102;2023-08-17T07:59:37;102225.97;;;22.17;56.86
81033;BME280;70514;52.478;6.102;2023-08-17T08:02:06;102233.00;;;22.15;56.79
81033;BME280;70514;52.478;6.102;2023-08-17T08:04:35;102219.69;;;22.24;56.26
81033;BME280;70514;52.478;6.102;2023-08-17T08:07:05;102227.69;;;22.64;55.40
81033;BME280;70514;52.478;6.102;2023-08-17T08:09:34;102230.22;;;22.72;55.24
81033;BME280;70514;52.478;6.102;2023-08-17T08:12:05;102227.22;;;22.90;54.64
81033;BME280;70514;52.478;6.102;2023-08-17T08:14:35;102232.22;;;23.02;54.19
81033;BME280;70514;52.478;6.102;2023-08-17T08:17:04;102230.22;;;22.72;54.86
81033;BME280;70514;52.478;6.102;2023-08-17T08:19:33;102222.03;;;22.87;54.20
81033;BME280;70514;52.478;6.102;2023-08-17T08:22:02;102222.00;;;22.42;55.40
81033;BME280;70514;52.478;6.102;2023-08-17T08:24:31;102226.88;;;22.13;56.93
81033;BME280;70514;52.478;6.102;2023-08-17T08:27:06;102228.47;;;22.71;54.85
81033;BME280;70514;52.478;6.102;2023-08-17T08:29:36;102228.56;;;22.65;54.65
81033;BME280;70514;52.478;6.102;2023-08-17T08:32:05;102234.28;;;22.39;55.76
81033;BME280;70514;52.478;6.102;2023-08-17T08:34:34;102237.56;;;22.52;55.38
81033;BME280;70514;52.478;6.102;2023-08-17T08:37:03;102232.88;;;22.69;55.16
81033;BME280;70514;52.478;6.102;2023-08-17T08:39:48;102230.75;;;22.41;56.48
81033;BME280;70514;52.478;6.102;2023-08-17T08:42:18;102221.53;;;22.67;55.08
81033;BME280;70514;52.478;6.102;2023-08-17T08:44:49;102223.72;;;22.43;56.06
81033;BME280;70514;52.478;6.102;2023-08-17T08:47:18;102226.19;;;22.53;55.58
81033;BME280;70514;52.478;6.102;2023-08-17T08:49:59;102218.25;;;22.56;54.94
81033;BME280;70514;52.478;6.102;2023-08-17T08:52:38;102217.66;;;22.86;54.35
81033;BME280;70514;52.478;6.102;2023-08-17T08:55:21;102217.44;;;22.52;55.55
81033;BME280;70514;52.478;6.102;2023-08-17T08:57:53;102214.03;;;22.47;55.91
81033;BME280;70514;52.478;6.102;2023-08-17T09:00:24;102222.03;;;22.85;55.07
81033;BME280;70514;52.478;6.102;2023-08-17T09:02:53;102216.66;;;22.47;56.07
81033;BME280;70514;52.478;6.102;2023-08-17T09:05:23;102224.34;;;22.58;55.52
81033;BME280;70514;52.478;6.102;2023-08-17T09:07:53;102227.22;;;21.95;57.20
81033;BME280;70514;52.478;6.102;2023-08-17T09:10:23;102219.06;;;22.12;56.23
81033;BME280;70514;52.478;6.102;2023-08-17T09:12:53;102218.22;;;22.10;57.01
81033;BME280;70514;52.478;6.102;2023-08-17T09:15:22;102202.00;;;22.35;56.29
81033;BME280;70514;52.478;6.102;2023-08-17T09:17:51;102211.75;;;22.29;57.22
81033;BME280;70514;52.478;6.102;2023-08-17T09:20:38;102210.13;;;22.22;56.93
81033;BME280;70514;52.478;6.102;2023-08-17T09:23:18;102212.16;;;22.06;57.43
81033;BME280;70514;52.478;6.102;2023-08-17T09:25:49;102206.72;;;22.17;56.89
81033;BME280;70514;52.478;6.102;2023-08-17T09:28:20;102204.34;;;22.03;56.99
81033;BME280;70514;52.478;6.102;2023-08-17T09:30:54;102209.31;;;22.64;55.55
81033;BME280;70514;52.478;6.102;2023-08-17T09:33:28;102201.31;;;22.73;55.41
81033;BME280;70514;52.478;6.102;2023-08-17T09:35:59;102214.63;;;22.61;55.81
81033;BME280;70514;52.478;6.102;2023-08-17T09:38:29;102204.34;;;22.51;56.33
81033;BME280;70514;52.478;6.102;2023-08-17T09:40:58;102198.72;;;22.23;57.16
81033;BME280;70514;52.478;6.102;2023-08-17T09:43:27;102201.13;;;21.86;58.35
81033;BME280;70514;52.478;6.102;2023-08-17T09:45:58;102197.22;;;22.10;58.19
81033;BME280;70514;52.478;6.102;2023-08-17T09:48:28;102202.59;;;22.50;56.29
81033;BME280;70514;52.478;6.102;2023-08-17T09:51:00;102200.91;;;21.98;57.90
81033;BME280;70514;52.478;6.102;2023-08-17T09:53:35;102202.88;;;21.84;58.75
81033;BME280;70514;52.478;6.102;2023-08-17T09:56:07;102201.47;;;21.63;60.09
81033;BME280;70514;52.478;6.102;2023-08-17T09:58:46;102205.56;;;21.24;60.89
81033;BME280;70514;52.478;6.102;2023-08-17T10:01:15;102196.06;;;21.72;60.05
81033;BME280;70514;52.478;6.102;2023-08-17T10:03:44;102199.47;;;21.22;61.13
81033;BME280;70514;52.478;6.102;2023-08-17T10:06:17;102202.72;;;21.93;58.98
81033;BME280;70514;52.478;6.102;2023-08-17T10:08:56;102201.16;;;22.33;57.99
81033;BME280;70514;52.478;6.102;2023-08-17T10:11:30;102204.03;;;22.21;58.20
81033;BME280;70514;52.478;6.102;2023-08-17T10:14:02;102201.94;;;22.38;57.44
81033;BME280;70514;52.478;6.102;2023-08-17T10:16:44;102202.16;;;22.28;57.97
81033;BME280;70514;52.478;6.102;2023-08-17T10:19:34;102199.25;;;21.37;60.35
81033;BME280;70514;52.478;6.102;2023-08-17T10:22:16;102196.22;;;21.65;59.54
81033;BME280;70514;52.478;6.102;2023-08-17T10:24:47;102202.53;;;22.07;58.70
81033;BME280;70514;52.478;6.102;2023-08-17T10:27:20;102190.06;;;22.19;58.23
81033;BME280;70514;52.478;6.102;2023-08-17T10:29:50;102173.38;;;22.66;56.35
81033;BME280;70514;52.478;6.102;2023-08-17T10:32:22;102186.03;;;22.91;55.82
81033;BME280;70514;52.478;6.102;2023-08-17T10:34:53;102177.03;;;22.59;56.82
81033;BME280;70514;52.478;6.102;2023-08-17T10:37:23;102178.88;;;22.08;58.67
81033;BME280;70514;52.478;6.102;2023-08-17T10:39:53;102177.50;;;21.86;59.40
81033;BME280;70514;52.478;6.102;2023-08-17T10:42:34;102170.38;;;22.43;57.78
81033;BME280;70514;52.478;6.102;2023-08-17T10:45:34;102172.22;;;21.87;59.67
81033;BME280;70514;52.478;6.102;2023-08-17T10:50:58;102162.13;;;22.61;57.35
81033;BME280;70514;52.478;6.102;2023-08-17T10:53:34;102160.56;;;22.51;56.88
81033;BME280;70514;52.478;6.102;2023-08-17T10:56:06;102158.75;;;22.55;57.18
81033;BME280;70514;52.478;6.102;2023-08-17T10:58:35;102157.97;;;22.50;57.06
81033;BME280;70514;52.478;6.102;2023-08-17T11:01:04;102161.16;;;22.22;58.14
81033;BME280;70514;52.478;6.102;2023-08-17T11:03:34;102162.53;;;22.41;57.92
81033;BME280;70514;52.478;6.102;2023-08-17T11:06:17;102158.94;;;22.44;57.76
81033;BME280;70514;52.478;6.102;2023-08-17T11:08:55;102165.50;;;22.66;56.78
81033;BME280;70514;52.478;6.102;2023-08-17T11:11:30;102157.94;;;22.53;57.45
81033;BME280;70514;52.478;6.102;2023-08-17T11:14:00;102154.56;;;22.46;57.42
81033;BME280;70514;52.478;6.102;2023-08-17T11:16:29;102164.22;;;22.88;56.36
81033;BME280;70514;52.478;6.102;2023-08-17T11:19:00;102170.28;;;23.30;54.88
81033;BME280;70514;52.478;6.102;2023-08-17T11:21:29;102162.41;;;23.29;54.52
81033;BME280;70514;52.478;6.102;2023-08-17T11:23:59;102160.03;;;23.18;55.00
81033;BME280;70514;52.478;6.102;2023-08-17T11:26:28;102156.19;;;22.95;55.67
81033;BME280;70514;52.478;6.102;2023-08-17T11:29:03;102157.72;;;23.05;55.61
81033;BME280;70514;52.478;6.102;2023-08-17T11:31:33;102167.56;;;23.34;54.70
81033;BME280;70514;52.478;6.102;2023-08-17T11:34:02;102166.59;;;22.99;55.59
81033;BME280;70514;52.478;6.102;2023-08-17T11:36:32;102172.66;;;22.14;59.25
81033;BME280;70514;52.478;6.102;2023-08-17T11:39:01;102168.00;;;22.29;58.90
81033;BME280;70514;52.478;6.102;2023-08-17T11:41:32;102161.97;;;22.69;57.29
81033;BME280;70514;52.478;6.102;2023-08-17T11:44:01;102170.66;;;23.12;56.10
81033;BME280;70514;52.478;6.102;2023-08-17T11:46:32;102167.03;;;23.18;55.66
81033;BME280;70514;52.478;6.102;2023-08-17T11:49:01;102153.25;;;23.08;56.00
81033;BME280;70514;52.478;6.102;2023-08-17T11:51:31;102152.50;;;23.03;55.69
81033;BME280;70514;52.478;6.102;2023-08-17T11:54:01;102159.94;;;23.21;55.30
81033;BME280;70514;52.478;6.102;2023-08-17T11:56:33;102159.88;;;23.26;55.50
81033;BME280;70514;52.478;6.102;2023-08-17T11:59:09;102155.03;;;23.06;56.17
81033;BME280;70514;52.478;6.102;2023-08-17T12:01:42;102149.44;;;23.21;55.85
81033;BME280;70514;52.478;6.102;2023-08-17T12:04:12;102148.28;;;23.33;55.57
81033;BME280;70514;52.478;6.102;2023-08-17T12:06:44;102154.72;;;23.58;54.47
81033;BME280;70514;52.478;6.102;2023-08-17T12:09:16;102150.66;;;23.44;55.18
81033;BME280;70514;52.478;6.102;2023-08-17T12:11:45;102143.91;;;23.70;54.25
81033;BME280;70514;52.478;6.102;2023-08-17T12:14:15;102139.41;;;23.74;54.16
81033;BME280;70514;52.478;6.102;2023-08-17T12:16:46;102145.50;;;23.76;54.15
81033;BME280;70514;52.478;6.102;2023-08-17T12:19:19;102146.03;;;23.89;53.66
81033;BME280;70514;52.478;6.102;2023-08-17T12:21:49;102141.63;;;23.57;54.35
81033;BME280;70514;52.478;6.102;2023-08-17T12:24:18;102145.91;;;23.22;55.49
81033;BME280;70514;52.478;6.102;2023-08-17T12:26:48;102143.88;;;23.72;53.91
81033;BME280;70514;52.478;6.102;2023-08-17T12:29:20;102149.59;;;23.52;54.40
81033;BME280;70514;52.478;6.102;2023-08-17T12:31:52;102141.66;;;23.89;53.63
81033;BME280;70514;52.478;6.102;2023-08-17T12:34:21;102146.00;;;23.90;53.31
81033;BME280;70514;52.478;6.102;2023-08-17T12:36:50;102138.16;;;23.55;54.70
81033;BME280;70514;52.478;6.102;2023-08-17T12:39:20;102134.97;;;23.41;55.41
81033;BME280;70514;52.478;6.102;2023-08-17T12:41:49;102137.25;;;23.57;54.61
81033;BME280;70514;52.478;6.102;2023-08-17T12:44:18;102146.66;;;23.66;55.03
81033;BME280;70514;52.478;6.102;2023-08-17T12:46:48;102149.53;;;23.17;56.44
81033;BME280;70514;52.478;6.102;2023-08-17T12:49:17;102151.47;;;23.47;55.21
81033;BME280;70514;52.478;6.102;2023-08-17T12:51:46;102156.91;;;23.40;55.27
81033;BME280;70514;52.478;6.102;2023-08-17T12:54:15;102148.19;;;23.38;55.97
81033;BME280;70514;52.478;6.102;2023-08-17T12:56:44;102150.81;;;23.38;55.74
81033;BME280;70514;52.478;6.102;2023-08-17T12:59:14;102154.97;;;23.48;55.26
81033;BME280;70514;52.478;6.102;2023-08-17T13:01:43;102155.16;;;23.76;54.79
81033;BME280;70514;52.478;6.102;2023-08-17T13:04:13;102159.53;;;23.40;56.04
81033;BME280;70514;52.478;6.102;2023-08-17T13:06:42;102149.09;;;22.98;57.12
81033;BME280;70514;52.478;6.102;2023-08-17T13:09:17;102157.44;;;23.17;56.92
81033;BME280;70514;52.478;6.102;2023-08-17T13:11:48;102152.94;;;23.59;55.33
81033;BME280;70514;52.478;6.102;2023-08-17T13:14:17;102142.69;;;23.48;55.94